Terminal Aerodrome Forecast
Issued by NWS Cleveland, OH

Home | Current Version | Previous Version | Text Only | Print | Product List | Glossary On
Versions: 1 2 3 4 5 6 7 8 9 10 11 12 13
000
FTUS41 KCLE 201100
TAFERI
TAF
KERI 201120Z 2012/2112 17012KT P6SM VCSH SCT050 OVC150
      TEMPO 2012/2014 3SM -TSRA BR SCT025 OVC035CB
     FM201600 22010KT P6SM VCTS BKN040CB OVC150
     FM202300 21008KT P6SM SCT040 BKN150=

USA.gov is the U.S. government's official web portal to all federal, state and local government web resources and services.